Time;durP1;ratioP1;P1;durP2;ratioP2;P2;SDS_P1;SDS_P2;PMS_P1;PMS_P2;Temp;Humidity;BMP_temperature;BMP_pressure;BME280_temperature;BME280_humidity;BME280_pressure;Samples;Min_cycle;Max_cycle;Signal;HPM_P1;HPM_P2
2021/12/14 00:02:41;;;;;;;9.85;6.00;;;9.10;82.60;;;;;;6181103;28;20432;-79
2021/12/14 00:05:44;;;;;;;11.68;6.65;;;9.10;82.60;;;;;;6181065;28;20054;-80
2021/12/14 00:08:53;;;;;;;9.88;5.88;;;9.10;82.60;;;;;;6182904;28;20175;-78
2021/12/14 00:12:14;;;;;;;14.75;7.10;;;9.10;82.60;;;;;;6180709;28;20069;-80
2021/12/14 00:15:17;;;;;;;10.88;5.97;;;9.20;82.50;;;;;;6179715;28;20050;-80
2021/12/14 00:18:20;;;;;;;13.07;6.20;;;9.20;82.30;;;;;;6178886;28;20047;-80
2021/12/14 00:21:30;;;;;;;12.65;6.40;;;9.10;82.20;;;;;;6179358;28;20070;-80
2021/12/14 00:24:32;;;;;;;11.35;5.78;;;9.10;82.30;;;;;;6178114;28;20053;-79
2021/12/14 00:27:36;;;;;;;11.43;6.15;;;9.10;82.30;;;;;;6178903;28;20047;-78
2021/12/14 00:30:39;;;;;;;12.57;6.13;;;9.00;82.20;;;;;;6178936;28;20130;-80
2021/12/14 00:33:43;;;;;;;14.23;5.25;;;8.90;82.30;;;;;;6177977;28;20053;-80
2021/12/14 00:36:46;;;;;;;10.65;5.00;;;8.80;82.50;;;;;;6178698;28;20508;-79
2021/12/14 00:39:50;;;;;;;8.23;5.20;;;8.80;82.80;;;;;;6177926;28;20189;-79
2021/12/14 00:42:52;;;;;;;10.63;5.57;;;8.80;82.80;;;;;;6179849;28;20175;-79
2021/12/14 00:45:55;;;;;;;10.57;4.95;;;8.80;82.70;;;;;;6177851;28;20055;-80
2021/12/14 00:48:57;;;;;;;11.40;5.80;;;8.80;82.60;;;;;;6177758;28;20038;-78
2021/12/14 00:52:01;;;;;;;8.10;4.57;;;8.70;82.90;;;;;;6176603;28;20525;-78
2021/12/14 00:55:06;;;;;;;10.23;4.82;;;8.80;82.70;;;;;;6177937;28;20051;-79
2021/12/14 00:58:09;;;;;;;9.95;4.28;;;8.70;82.60;;;;;;6177361;28;20095;-79
2021/12/14 01:01:14;;;;;;;9.77;4.55;;;8.70;82.70;;;;;;6177424;28;20046;-79
2021/12/14 01:04:22;;;;;;;7.95;4.50;;;8.60;82.90;;;;;;6177984;28;20076;-78
2021/12/14 01:07:30;;;;;;;7.70;3.90;;;8.70;83.10;;;;;;6179660;28;20054;-78
2021/12/14 01:10:34;;;;;;;7.63;5.22;;;8.70;82.90;;;;;;6178048;28;20065;-79
2021/12/14 01:13:42;;;;;;;8.48;4.55;;;8.80;82.80;;;;;;6178053;28;20398;-79
2021/12/14 01:16:52;;;;;;;;;;;8.80;82.60;;;;;;6178113;28;20058;-79
2021/12/14 01:19:57;;;;;;;9.18;3.70;;;8.80;82.60;;;;;;6197878;28;19922;-79
2021/12/14 01:23:02;;;;;;;6.55;4.22;;;8.80;82.30;;;;;;6202695;28;20046;-79
2021/12/14 01:26:09;;;;;;;8.68;3.78;;;8.80;82.30;;;;;;6197295;28;20050;-79
2021/12/14 01:29:13;;;;;;;7.43;4.00;;;8.70;82.20;;;;;;6202151;28;20042;-79
2021/12/14 01:32:15;;;;;;;7.70;3.70;;;8.70;82.40;;;;;;6200911;28;20420;-79
2021/12/14 01:35:21;;;;;;;11.02;4.25;;;8.70;82.90;;;;;;6201975;28;20065;-79
2021/12/14 01:38:35;;;;;;;7.82;3.30;;;8.60;82.70;;;;;;6201129;28;20053;-78
2021/12/14 01:41:38;;;;;;;7.72;4.60;;;8.60;82.70;;;;;;6199933;28;20060;-80
2021/12/14 01:44:43;;;;;;;9.40;4.90;;;8.60;82.90;;;;;;6181677;28;20513;-79
2021/12/14 01:47:49;;;;;;;12.05;4.00;;;8.60;83.10;;;;;;6178116;28;20134;-78
2021/12/14 01:50:56;;;;;;;12.20;4.30;;;8.70;83.10;;;;;;6178312;28;20047;-79
2021/12/14 01:54:01;;;;;;;13.50;5.05;;;8.60;83.10;;;;;;6177399;28;20613;-79
2021/12/14 01:57:07;;;;;;;8.57;4.32;;;8.70;83.20;;;;;;6176980;28;20074;-78
2021/12/14 02:00:13;;;;;;;12.73;5.03;;;8.70;83.20;;;;;;6177003;28;20521;-79
2021/12/14 02:03:16;;;;;;;8.68;4.32;;;8.70;83.40;;;;;;6180406;28;20668;-79
2021/12/14 02:06:23;;;;;;;10.48;5.30;;;8.60;83.30;;;;;;6181023;28;20509;-78
2021/12/14 02:09:28;;;;;;;11.10;5.13;;;8.60;83.50;;;;;;6182152;28;20043;-79
2021/12/14 02:12:32;;;;;;;13.40;4.65;;;8.70;83.60;;;;;;6182232;28;20516;-79
2021/12/14 02:15:38;;;;;;;11.75;5.15;;;8.70;83.60;;;;;;6182150;28;20050;-79
2021/12/14 02:18:45;;;;;;;7.78;4.95;;;8.70;83.60;;;;;;6181877;28;20065;-79
2021/12/14 02:21:51;;;;;;;9.20;4.53;;;8.70;83.70;;;;;;6181396;28;20073;-79
2021/12/14 02:24:53;;;;;;;7.63;4.25;;;8.80;83.60;;;;;;6182025;28;20047;-79
2021/12/14 02:27:57;;;;;;;13.77;4.53;;;8.80;83.50;;;;;;6181402;28;20146;-79
2021/12/14 02:31:01;;;;;;;11.73;5.63;;;8.80;83.50;;;;;;6182387;28;20047;-78
2021/12/14 02:34:05;;;;;;;8.95;4.30;;;8.70;83.60;;;;;;6181770;28;20046;-79
2021/12/14 02:37:08;;;;;;;11.18;4.28;;;8.70;83.80;;;;;;6181724;28;20703;-80
2021/12/14 02:40:18;;;;;;;7.57;4.95;;;8.70;83.80;;;;;;6181394;28;20046;-80
2021/12/14 02:43:23;;;;;;;7.22;4.53;;;8.70;84.00;;;;;;6192143;28;20105;-79
2021/12/14 02:46:28;;;;;;;9.80;5.22;;;8.70;84.20;;;;;;6186866;28;20046;-78
2021/12/14 02:49:33;;;;;;;9.77;4.47;;;8.60;84.00;;;;;;6181527;28;20049;-79
2021/12/14 02:52:37;;;;;;;12.27;5.65;;;8.60;84.40;;;;;;6181243;28;20053;-80
2021/12/14 02:55:40;;;;;;;9.02;4.63;;;8.60;84.50;;;;;;6180888;28;20078;-79
2021/12/14 02:58:44;;;;;;;13.38;5.40;;;8.60;84.50;;;;;;6181248;28;20051;-80
2021/12/14 03:01:47;;;;;;;9.63;5.13;;;8.60;84.60;;;;;;6180623;28;20057;-80
2021/12/14 03:04:53;;;;;;;13.50;5.30;;;8.60;84.50;;;;;;6181207;28;20046;-80
2021/12/14 03:08:00;;;;;;;11.35;6.07;;;8.70;84.50;;;;;;6182048;28;20046;-79
2021/12/14 03:11:11;;;;;;;10.40;5.65;;;8.70;84.40;;;;;;6181086;28;20087;-79
2021/12/14 03:14:12;;;;;;;11.05;5.80;;;8.80;84.20;;;;;;6179493;28;20077;-79
2021/12/14 03:17:14;;;;;;;15.45;7.38;;;8.80;84.10;;;;;;6179939;28;20046;-78
2021/12/14 03:20:19;;;;;;;19.73;7.43;;;8.90;84.10;;;;;;6179644;28;20142;-80
2021/12/14 03:23:26;;;;;;;11.80;7.82;;;8.80;83.90;;;;;;6182229;28;20102;-78
2021/12/14 03:26:30;;;;;;;17.83;8.88;;;8.80;84.10;;;;;;6182375;28;20052;-79
2021/12/14 03:29:34;;;;;;;16.70;8.80;;;8.80;84.10;;;;;;6180324;28;20070;-79
2021/12/14 03:32:36;;;;;;;16.08;10.10;;;8.70;84.50;;;;;;6179634;28;20416;-79
2021/12/14 03:35:41;;;;;;;19.58;8.32;;;8.60;84.80;;;;;;6179315;28;20096;-79
2021/12/14 03:38:50;;;;;;;16.55;9.45;;;8.50;85.10;;;;;;6180652;28;20137;-78
2021/12/14 03:41:56;;;;;;;21.77;10.38;;;8.40;85.60;;;;;;6179533;28;20416;-79
2021/12/14 03:44:58;;;;;;;18.08;10.80;;;8.30;86.20;;;;;;6186489;28;20539;-78
2021/12/14 03:48:03;;;;;;;18.50;10.85;;;8.20;86.80;;;;;;6203757;28;20382;-79
2021/12/14 03:51:05;;;;;;;30.85;12.80;;;8.20;86.90;;;;;;6205619;28;20046;-79
2021/12/14 03:54:09;;;;;;;25.55;11.75;;;8.20;86.90;;;;;;6204428;28;20424;-79
2021/12/14 03:57:12;;;;;;;26.25;12.23;;;8.30;87.10;;;;;;6204685;28;20428;-78
2021/12/14 04:00:18;;;;;;;23.63;12.13;;;8.30;87.10;;;;;;6204139;28;20534;-80
2021/12/14 04:03:22;;;;;;;28.98;12.20;;;8.20;87.20;;;;;;6204893;28;20043;-78
2021/12/14 04:06:24;;;;;;;32.63;13.85;;;8.10;87.60;;;;;;6203806;28;20047;-79
2021/12/14 04:09:31;;;;;;;29.10;12.85;;;8.00;87.80;;;;;;6203887;28;20053;-79
2021/12/14 04:12:33;;;;;;;24.80;12.67;;;8.00;88.20;;;;;;6200187;28;20046;-79
2021/12/14 04:15:36;;;;;;;29.80;12.38;;;7.90;88.50;;;;;;6197701;28;20306;-78
2021/12/14 04:18:38;;;;;;;33.03;12.60;;;7.90;88.70;;;;;;6198842;28;20536;-78
2021/12/14 04:21:42;;;;;;;30.77;12.15;;;7.80;89.00;;;;;;6197658;28;20065;-78
2021/12/14 04:24:47;;;;;;;36.10;13.57;;;7.80;89.50;;;;;;6197545;28;20072;-78
2021/12/14 04:27:51;;;;;;;34.63;13.80;;;7.90;89.40;;;;;;6197691;28;20133;-79
2021/12/14 04:30:53;;;;;;;38.67;14.90;;;8.00;89.10;;;;;;6198863;28;20054;-78
2021/12/14 04:33:56;;;;;;;35.75;15.02;;;8.10;88.90;;;;;;6199839;28;20042;-78
2021/12/14 04:36:58;;;;;;;42.42;13.63;;;8.10;88.80;;;;;;6199389;28;20046;-78
2021/12/14 04:40:16;;;;;;;36.58;15.52;;;8.10;88.70;;;;;;6199036;28;20120;-78
2021/12/14 04:53:39;;;;;;;45.75;15.77;;;8.20;88.40;;;;;;6199293;28;20571;-79
2021/12/14 04:56:45;;;;;;;57.97;16.65;;;8.10;88.50;;;;;;6199119;28;20042;-78
2021/12/14 04:59:49;;;;;;;51.17;15.85;;;8.00;88.60;;;;;;6197839;28;20107;-79
2021/12/14 05:02:52;;;;;;;48.58;16.35;;;8.00;89.30;;;;;;6199272;28;20054;-79
2021/12/14 05:06:09;;;;;;;48.45;16.42;;;8.00;89.30;;;;;;6197435;28;20054;-79
2021/12/14 05:09:22;;;;;;;50.78;15.02;;;8.00;89.20;;;;;;6197807;28;20073;-79
2021/12/14 05:12:28;;;;;;;58.22;15.98;;;8.00;89.10;;;;;;6198254;28;20050;-78
2021/12/14 05:15:30;;;;;;;61.83;19.02;;;7.90;89.90;;;;;;6197555;28;20050;-79
2021/12/14 05:18:32;;;;;;;55.40;16.25;;;7.80;89.50;;;;;;6198166;28;20051;-79
2021/12/14 05:21:37;;;;;;;52.00;15.65;;;7.80;89.80;;;;;;6197463;28;20401;-79
2021/12/14 05:24:41;;;;;;;69.75;19.05;;;7.80;90.00;;;;;;6197457;28;20057;-78
2021/12/14 05:27:46;;;;;;;49.38;18.15;;;7.80;90.00;;;;;;6197641;28;20082;-78
2021/12/14 05:30:54;;;;;;;59.47;16.75;;;7.80;90.00;;;;;;6197902;28;20620;-79
2021/12/14 05:33:56;;;;;;;60.95;17.85;;;7.90;90.00;;;;;;6198041;28;20112;-79
2021/12/14 05:36:59;;;;;;;65.22;18.27;;;7.80;90.00;;;;;;6198513;28;20518;-78
2021/12/14 05:40:05;;;;;;;50.30;15.88;;;7.90;90.10;;;;;;6202858;28;20412;-77
2021/12/14 05:43:12;;;;;;;44.65;15.80;;;7.80;90.20;;;;;;6203577;28;20149;-78
2021/12/14 05:46:19;;;;;;;54.25;17.42;;;7.80;90.20;;;;;;6202027;28;20113;-79
2021/12/14 05:49:24;;;;;;;62.63;18.58;;;7.80;90.20;;;;;;6202628;28;20415;-79
2021/12/14 05:52:28;;;;;;;49.35;15.88;;;8.00;90.20;;;;;;6202464;28;20415;-77
2021/12/14 05:55:34;;;;;;;64.95;17.95;;;8.00;90.10;;;;;;6202901;28;20692;-78
2021/12/14 05:58:38;;;;;;;57.58;16.77;;;8.00;90.20;;;;;;6203763;28;20118;-78
2021/12/14 06:01:40;;;;;;;75.88;19.75;;;8.00;90.20;;;;;;6203305;28;20068;-77
2021/12/14 06:04:44;;;;;;;73.07;16.95;;;8.00;90.00;;;;;;6203137;28;20053;-79
2021/12/14 06:07:46;;;;;;;64.53;16.73;;;7.80;90.20;;;;;;6202800;28;20065;-78
2021/12/14 06:10:48;;;;;;;77.97;18.45;;;7.70;90.50;;;;;;6202803;28;20046;-78
2021/12/14 06:13:51;;;;;;;90.53;19.73;;;7.80;90.60;;;;;;6201828;28;20042;-79
2021/12/14 06:16:57;;;;;;;72.50;19.20;;;7.80;90.40;;;;;;6201744;28;20420;-78
2021/12/14 06:20:02;;;;;;;70.45;17.35;;;7.70;90.40;;;;;;6202600;28;20053;-78
2021/12/14 06:23:05;;;;;;;75.45;17.27;;;7.70;90.60;;;;;;6202789;28;20084;-79
2021/12/14 06:26:07;;;;;;;70.60;18.85;;;7.80;90.60;;;;;;6201587;28;20046;-78
2021/12/14 06:29:13;;;;;;;65.50;17.65;;;7.80;90.50;;;;;;6201619;28;20057;-78
2021/12/14 06:32:18;;;;;;;74.20;16.73;;;7.80;90.60;;;;;;6201849;28;20177;-77
2021/12/14 06:35:23;;;;;;;92.30;18.33;;;7.80;90.50;;;;;;6201276;28;20483;-78
2021/12/14 06:38:28;;;;;;;79.68;18.00;;;7.80;90.50;;;;;;6201288;28;20061;-78
2021/12/14 06:41:30;;;;;;;73.50;15.90;;;7.80;90.70;;;;;;6200505;28;20048;-77
2021/12/14 06:44:33;;;;;;;56.75;14.48;;;7.70;90.70;;;;;;6200786;28;20504;-76
2021/12/14 06:47:35;;;;;;;59.90;14.15;;;7.60;90.80;;;;;;6189995;28;20058;-78
2021/12/14 06:50:42;;;;;;;59.53;13.48;;;7.50;90.80;;;;;;6201414;28;20046;-77
2021/12/14 06:53:49;;;;;;;50.95;14.30;;;7.50;90.90;;;;;;6201249;28;20424;-77
2021/12/14 06:56:52;;;;;;;65.03;15.18;;;7.60;90.90;;;;;;6200958;28;20046;-77
2021/12/14 06:59:57;;;;;;;54.53;15.07;;;7.60;90.80;;;;;;6200589;28;20397;-78
2021/12/14 07:02:59;;;;;;;68.32;16.48;;;7.60;90.80;;;;;;6200964;28;20058;-80
2021/12/14 07:06:01;;;;;;;59.78;14.02;;;7.60;90.90;;;;;;6200998;28;20145;-78
2021/12/14 07:09:07;;;;;;;74.75;16.35;;;7.70;90.90;;;;;;6200382;28;20082;-78
2021/12/14 07:12:13;;;;;;;39.63;11.18;;;7.80;90.70;;;;;;6200501;28;20428;-78
2021/12/14 07:15:21;;;;;;;46.80;12.40;;;7.80;90.60;;;;;;6200554;28;20054;-78
2021/12/14 07:18:25;;;;;;;;;;;7.80;90.40;;;;;;6200116;28;20049;-78
2021/12/14 07:21:39;;;;;;;35.70;10.52;;;7.80;90.40;;;;;;6199318;28;19922;-78
2021/12/14 07:24:41;;;;;;;36.55;11.55;;;7.70;90.20;;;;;;6199003;28;20076;-78
2021/12/14 07:27:43;;;;;;;30.25;10.95;;;7.60;90.50;;;;;;6199334;28;20081;-79
2021/12/14 07:30:49;;;;;;;31.83;9.85;;;7.50;90.30;;;;;;6200218;28;20054;-77
2021/12/14 07:33:54;;;;;;;37.60;13.27;;;7.50;90.50;;;;;;6199943;28;20500;-78
2021/12/14 07:36:56;;;;;;;39.45;11.73;;;7.50;90.30;;;;;;6199444;28;20137;-78
2021/12/14 07:39:57;;;;;;;33.25;11.75;;;7.40;90.30;;;;;;6200122;28;20042;-78
2021/12/14 07:43:09;;;;;;;50.10;12.38;;;7.40;90.50;;;;;;6201173;28;20176;-78
2021/12/14 07:46:26;;;;;;;37.92;12.10;;;7.40;90.50;;;;;;6200184;28;20066;-78
2021/12/14 07:49:30;;;;;;;40.78;12.13;;;7.50;90.40;;;;;;6182605;28;20043;-78
2021/12/14 07:52:35;;;;;;;32.30;12.80;;;7.50;90.30;;;;;;6175432;28;20051;-78
2021/12/14 07:55:43;;;;;;;39.22;11.90;;;7.40;90.50;;;;;;6175291;28;20055;-78
2021/12/14 07:58:47;;;;;;;40.33;12.63;;;7.50;90.40;;;;;;6175847;28;20046;-78
2021/12/14 08:02:06;;;;;;;38.30;11.93;;;7.50;90.30;;;;;;6174284;28;20057;-76
2021/12/14 08:05:15;;;;;;;31.77;11.65;;;7.40;90.20;;;;;;6175489;28;20057;-79
2021/12/14 08:08:31;;;;;;;28.45;10.98;;;7.40;90.20;;;;;;6175292;28;20054;-79
2021/12/14 08:11:47;;;;;;;27.88;10.60;;;7.40;90.20;;;;;;6175266;28;20046;-78
2021/12/14 08:15:01;;;;;;;29.48;10.43;;;7.20;90.20;;;;;;6174997;28;20490;-78
2021/12/14 08:18:12;;;;;;;35.65;11.25;;;7.20;90.50;;;;;;6174881;28;20059;-79
2021/12/14 08:21:20;;;;;;;31.17;10.45;;;7.20;90.60;;;;;;6174793;28;20632;-78
2021/12/14 08:24:21;;;;;;;33.42;11.38;;;7.30;90.40;;;;;;6174632;28;20432;-78
2021/12/14 08:27:26;;;;;;;32.58;10.13;;;7.30;90.40;;;;;;6174868;28;20057;-78
2021/12/14 08:30:29;;;;;;;34.85;11.80;;;7.40;90.30;;;;;;6174578;28;20051;-78
2021/12/14 08:33:33;;;;;;;33.80;11.98;;;7.40;90.30;;;;;;6174657;28;20182;-78
2021/12/14 08:36:36;;;;;;;42.53;11.95;;;7.30;90.10;;;;;;6174163;28;20046;-79
2021/12/14 08:39:47;;;;;;;33.28;11.32;;;7.40;90.20;;;;;;6174476;28;20073;-78
2021/12/14 08:43:02;;;;;;;32.60;11.93;;;7.40;90.30;;;;;;6174776;28;20051;-78
2021/12/14 08:46:06;;;;;;;41.08;13.25;;;7.50;90.10;;;;;;6174283;28;20097;-79
2021/12/14 08:49:15;;;;;;;45.60;14.27;;;7.40;90.10;;;;;;6182169;28;20137;-80
2021/12/14 08:52:17;;;;;;;41.60;12.40;;;7.40;90.00;;;;;;6198461;28;20046;-78
2021/12/14 08:55:21;;;;;;;47.35;14.70;;;7.40;90.10;;;;;;6198941;28;20046;-78
2021/12/14 08:58:25;;;;;;;39.00;13.80;;;7.30;90.30;;;;;;6198999;28;20070;-79
2021/12/14 09:01:29;;;;;;;36.22;13.07;;;7.30;90.30;;;;;;6165264;28;20053;-79
2021/12/14 09:04:37;;;;;;;35.03;12.75;;;7.40;90.30;;;;;;6228568;28;20408;-78
2021/12/14 09:07:40;;;;;;;45.30;12.75;;;7.30;90.30;;;;;;6203631;28;20053;-79
2021/12/14 09:10:44;;;;;;;37.38;12.38;;;7.40;90.40;;;;;;6200224;28;20053;-78
2021/12/14 09:13:47;;;;;;;53.28;14.57;;;7.50;90.10;;;;;;6197929;28;20181;-79
2021/12/14 09:16:57;;;;;;;47.42;15.05;;;7.60;90.10;;;;;;6198461;28;20130;-79
2021/12/14 09:20:04;;;;;;;37.42;13.30;;;7.70;89.90;;;;;;6183859;28;20046;-78
2021/12/14 09:23:10;;;;;;;44.83;13.00;;;7.70;89.80;;;;;;6175861;28;20043;-80
2021/12/14 09:26:21;;;;;;;37.65;13.73;;;7.70;89.60;;;;;;6189564;28;20050;-79
2021/12/14 09:29:24;;;;;;;40.05;14.80;;;7.80;89.30;;;;;;6198386;28;20137;-80
2021/12/14 09:32:28;;;;;;;46.33;14.63;;;7.80;89.10;;;;;;6198868;28;20074;-79
2021/12/14 09:35:35;;;;;;;39.53;13.32;;;7.80;88.80;;;;;;6197739;28;20125;-79
2021/12/14 09:38:40;;;;;;;38.85;13.32;;;7.70;88.90;;;;;;6198357;28;20057;-78
2021/12/14 09:41:44;;;;;;;37.47;12.13;;;7.80;89.00;;;;;;6199003;28;20421;-79
2021/12/14 09:44:51;;;;;;;33.97;12.82;;;7.90;88.70;;;;;;6198337;28;20053;-78
2021/12/14 09:47:53;;;;;;;33.80;12.15;;;7.90;88.50;;;;;;6197995;28;20177;-78
2021/12/14 09:51:03;;;;;;;29.70;11.60;;;7.80;88.40;;;;;;6197544;28;20312;-80
2021/12/14 09:54:08;;;;;;;34.95;12.32;;;7.80;88.80;;;;;;6198512;28;20050;-78
2021/12/14 09:57:14;;;;;;;35.17;12.27;;;7.80;88.90;;;;;;6197530;28;20046;-80
2021/12/14 10:00:20;;;;;;;34.88;12.00;;;7.80;88.60;;;;;;6199013;28;20058;-81
2021/12/14 10:03:23;;;;;;;43.28;13.20;;;7.90;88.70;;;;;;6199812;28;20054;-80
2021/12/14 10:06:29;;;;;;;33.65;11.65;;;7.90;88.70;;;;;;6199308;28;20053;-80
2021/12/14 10:09:39;;;;;;;33.70;12.80;;;8.00;88.50;;;;;;6198805;28;20047;-80
2021/12/14 10:12:50;;;;;;;37.53;12.75;;;8.00;88.30;;;;;;6200478;28;20424;-80
2021/12/14 10:15:55;;;;;;;31.98;13.48;;;8.00;88.10;;;;;;6199643;28;20046;-80
2021/12/14 10:19:00;;;;;;;39.70;14.05;;;8.00;88.00;;;;;;6201488;28;20068;-80
2021/12/14 10:22:07;;;;;;;40.55;14.00;;;8.00;88.20;;;;;;6199712;28;20125;-81
2021/12/14 10:25:15;;;;;;;38.78;14.27;;;8.10;88.30;;;;;;6203617;28;20423;-81
2021/12/14 10:28:18;;;;;;;48.45;15.80;;;8.10;88.10;;;;;;6204653;28;20699;-80
2021/12/14 10:31:26;;;;;;;43.58;15.27;;;8.20;87.90;;;;;;6205139;28;20072;-81
2021/12/14 10:34:30;;;;;;;37.42;13.90;;;8.20;87.70;;;;;;6203533;28;20129;-81
2021/12/14 10:37:50;;;;;;;38.80;15.32;;;8.20;87.30;;;;;;6204589;28;20053;-81
2021/12/14 10:44:14;;;;;;;39.22;14.40;;;8.10;87.90;;;;;;6208138;28;20038;-81
2021/12/14 10:47:19;;;;;;;45.20;17.35;;;8.20;87.90;;;;;;6207381;28;20054;-80
2021/12/14 10:50:25;;;;;;;39.28;16.35;;;8.30;87.30;;;;;;6203370;28;20050;-80
2021/12/14 10:53:29;;;;;;;36.85;16.05;;;8.30;87.20;;;;;;6189203;28;20129;-79
2021/12/14 10:56:35;;;;;;;38.08;15.77;;;8.30;86.60;;;;;;6179754;28;20061;-79
2021/12/14 10:59:40;;;;;;;35.72;14.88;;;8.30;86.00;;;;;;6179962;28;20081;-79
2021/12/14 11:02:43;;;;;;;36.33;14.82;;;8.30;86.40;;;;;;6186181;28;20043;-80
2021/12/14 11:05:47;;;;;;;35.50;15.95;;;8.50;86.30;;;;;;6203979;28;20500;-80
2021/12/14 11:09:01;;;;;;;37.30;16.17;;;8.60;84.90;;;;;;6203336;28;20065;-80
2021/12/14 11:12:05;;;;;;;32.08;15.00;;;8.70;84.20;;;;;;6202883;28;20081;-80
2021/12/14 11:15:12;;;;;;;28.05;13.77;;;8.70;83.90;;;;;;6204630;28;20061;-80
2021/12/14 11:18:16;;;;;;;29.63;14.35;;;8.70;83.60;;;;;;6204374;28;20069;-79
2021/12/14 11:21:23;;;;;;;34.13;16.40;;;8.80;83.80;;;;;;6203904;28;20501;-80
2021/12/14 11:24:35;;;;;;;30.45;15.18;;;9.00;83.30;;;;;;6203719;28;20042;-83
2021/12/14 11:27:42;;;;;;;30.25;12.82;;;9.00;82.40;;;;;;6202970;28;20058;-80
2021/12/14 11:30:47;;;;;;;31.58;14.15;;;8.90;81.90;;;;;;6199953;28;20085;-80
2021/12/14 11:33:51;;;;;;;31.67;14.45;;;8.90;81.50;;;;;;6193331;28;20042;-81
2021/12/14 11:36:56;;;;;;;26.85;13.57;;;8.80;81.30;;;;;;6201632;28;20690;-78
2021/12/14 11:40:01;;;;;;;28.50;13.77;;;8.60;81.50;;;;;;6203675;28;20089;-80
2021/12/14 11:43:11;;;;;;;30.30;14.65;;;8.60;82.00;;;;;;6204269;28;20058;-78
2021/12/14 11:46:13;;;;;;;26.92;12.73;;;8.60;82.00;;;;;;6203956;28;20129;-78
2021/12/14 11:49:15;;;;;;;30.23;14.23;;;8.60;81.60;;;;;;6203716;28;20077;-79
2021/12/14 11:52:34;;;;;;;30.60;14.68;;;8.60;82.60;;;;;;6204065;28;20128;-79
2021/12/14 11:55:41;;;;;;;30.35;13.18;;;8.60;81.70;;;;;;6203609;28;20433;-79
2021/12/14 11:58:45;;;;;;;38.30;15.45;;;8.70;82.00;;;;;;6204361;28;20050;-79
2021/12/14 12:01:49;;;;;;;30.45;14.95;;;8.80;81.20;;;;;;6202410;28;20042;-79
2021/12/14 12:04:51;;;;;;;36.90;15.13;;;8.80;80.80;;;;;;6201429;28;20140;-79
2021/12/14 12:11:15;;;;;;;31.05;15.25;;;9.00;80.90;;;;;;6202244;28;20078;-79
2021/12/14 12:14:22;;;;;;;33.75;15.52;;;9.00;80.10;;;;;;6202452;28;20722;-79
2021/12/14 12:17:34;;;;;;;29.90;14.70;;;9.00;80.60;;;;;;6202170;28;20046;-77
2021/12/14 12:20:40;;;;;;;28.23;13.32;;;9.10;80.30;;;;;;6201835;28;20050;-78
2021/12/14 12:23:44;;;;;;;34.15;15.43;;;9.20;80.00;;;;;;6200585;28;20065;-78
2021/12/14 12:26:47;;;;;;;31.98;13.95;;;9.20;80.00;;;;;;6200780;28;20057;-78
2021/12/14 12:30:06;;;;;;;32.90;15.90;;;9.30;79.10;;;;;;6201473;28;20076;-79
2021/12/14 12:33:14;;;;;;;33.53;15.55;;;9.30;79.90;;;;;;6200249;28;20047;-79
2021/12/14 12:36:19;;;;;;;29.05;13.50;;;9.30;79.20;;;;;;6199236;28;20053;-77
2021/12/14 12:39:27;;;;;;;26.67;14.00;;;9.30;79.40;;;;;;6201344;28;20046;-80
2021/12/14 12:42:31;;;;;;;26.27;12.50;;;9.30;79.50;;;;;;6200447;28;20054;-78
2021/12/14 12:45:36;;;;;;;27.85;14.27;;;9.20;79.50;;;;;;6198653;28;20046;-79
2021/12/14 12:48:45;;;;;;;27.98;13.30;;;9.40;79.70;;;;;;6200280;28;20054;-78
2021/12/14 12:52:10;;;;;;;31.67;14.43;;;9.40;79.00;;;;;;6200981;28;20061;-78
2021/12/14 12:55:14;;;;;;;31.55;14.38;;;9.40;79.10;;;;;;6183093;28;20047;-79
2021/12/14 12:58:17;;;;;;;28.90;13.38;;;9.20;79.40;;;;;;6175542;28;20497;-77
2021/12/14 13:01:23;;;;;;;24.58;13.57;;;9.10;79.50;;;;;;6175978;28;20628;-80
2021/12/14 13:04:39;;;;;;;25.45;12.70;;;9.10;80.00;;;;;;6194533;28;20101;-80
2021/12/14 13:07:46;;;;;;;27.75;13.95;;;9.00;80.10;;;;;;6201014;28;20051;-79
2021/12/14 13:10:53;;;;;;;30.58;13.10;;;9.00;80.10;;;;;;6200019;28;20060;-78
2021/12/14 13:13:59;;;;;;;30.60;13.88;;;9.10;80.00;;;;;;6198910;28;20042;-78
2021/12/14 13:17:03;;;;;;;23.90;12.70;;;9.10;80.10;;;;;;6199067;28;20042;-78
2021/12/14 13:20:08;;;;;;;27.00;11.85;;;9.20;80.00;;;;;;6198185;28;20051;-78
2021/12/14 13:23:10;;;;;;;26.13;12.10;;;9.30;79.50;;;;;;6200362;28;20081;-79
2021/12/14 13:26:30;;;;;;;29.55;16.98;;;9.50;79.20;;;;;;6198299;28;20540;-77
2021/12/14 13:29:47;;;;;;;31.35;14.32;;;9.50;78.90;;;;;;6199293;28;20093;-79
2021/12/14 13:32:50;;;;;;;24.50;12.25;;;9.70;78.30;;;;;;6198918;28;20061;-78
2021/12/14 13:35:52;;;;;;;27.73;12.45;;;9.90;77.80;;;;;;6198341;28;20412;-79
2021/12/14 13:38:54;;;;;;;25.80;13.82;;;10.00;76.70;;;;;;6198804;28;20181;-78
2021/12/14 13:42:27;;;;;;;26.60;15.35;;;9.80;76.80;;;;;;6197887;28;20048;-78
2021/12/14 13:45:34;;;;;;;20.25;11.85;;;9.90;77.20;;;;;;6177578;28;20047;-77
2021/12/14 13:48:38;;;;;;;20.67;11.77;;;10.00;76.70;;;;;;6198705;28;20042;-79
2021/12/14 13:51:40;;;;;;;23.40;12.18;;;9.90;76.90;;;;;;6198423;28;20570;-77
2021/12/14 13:55:11;;;;;;;28.02;13.43;;;9.90;76.70;;;;;;6196205;28;20157;-78
2021/12/14 13:58:16;;;;;;;26.38;13.10;;;9.80;77.30;;;;;;6177055;28;20050;-78
2021/12/14 14:01:23;;;;;;;25.23;13.52;;;9.80;77.30;;;;;;6180690;28;20050;-78
2021/12/14 14:04:29;;;;;;;118.63;49.97;;;9.80;77.20;;;;;;6198548;28;20106;-78
2021/12/14 14:07:31;;;;;;;111.95;45.28;;;9.80;77.50;;;;;;6205430;28;20058;-78
2021/12/14 14:10:34;;;;;;;113.05;50.33;;;9.90;77.70;;;;;;6205006;28;20050;-78
2021/12/14 14:13:38;;;;;;;27.55;14.30;;;9.90;77.70;;;;;;6205759;28;20074;-82
2021/12/14 14:16:47;;;;;;;27.17;12.68;;;9.90;77.50;;;;;;6205860;28;20050;-79
2021/12/14 14:19:52;;;;;;;27.42;13.88;;;9.80;77.60;;;;;;6204425;28;20687;-78
2021/12/14 14:23:05;;;;;;;25.50;13.07;;;9.70;78.00;;;;;;6205072;28;20042;-79
2021/12/14 14:26:11;;;;;;;21.20;11.57;;;9.70;78.20;;;;;;6203805;28;20042;-79
2021/12/14 14:29:15;;;;;;;31.23;15.93;;;9.70;78.80;;;;;;6203741;28;20052;-78
2021/12/14 14:32:29;;;;;;;25.48;14.85;;;9.60;78.40;;;;;;6204864;28;20049;-78
2021/12/14 14:35:41;;;;;;;21.83;12.45;;;9.60;78.70;;;;;;6204626;28;20129;-79
2021/12/14 14:38:45;;;;;;;24.33;10.82;;;9.50;79.00;;;;;;6204812;28;20128;-79
2021/12/14 14:41:50;;;;;;;22.55;11.25;;;9.50;79.30;;;;;;6203414;28;20201;-79
2021/12/14 14:44:56;;;;;;;21.40;11.55;;;9.40;79.20;;;;;;6203853;28;20107;-78
2021/12/14 14:47:59;;;;;;;27.90;13.43;;;9.40;79.50;;;;;;6204230;28;20053;-78
2021/12/14 14:51:01;;;;;;;23.90;12.52;;;9.30;79.70;;;;;;6203352;28;20394;-78
2021/12/14 14:54:23;;;;;;;22.23;11.32;;;9.20;80.20;;;;;;6202854;28;20177;-78
2021/12/14 14:57:34;;;;;;;23.13;11.30;;;9.10;80.40;;;;;;6179528;28;20059;-78
2021/12/14 15:00:45;;;;;;;22.23;11.02;;;9.10;80.60;;;;;;6179076;28;20425;-77
2021/12/14 15:03:51;;;;;;;23.83;11.90;;;9.10;81.00;;;;;;6193415;28;20042;-79
2021/12/14 15:06:54;;;;;;;20.70;10.73;;;9.00;81.20;;;;;;6204821;28;20097;-79
2021/12/14 15:10:09;;;;;;;21.50;10.07;;;9.00;81.40;;;;;;6202139;28;20061;-79
2021/12/14 15:13:31;;;;;;;22.20;10.75;;;9.00;81.40;;;;;;6203960;28;20049;-79
2021/12/14 15:16:46;;;;;;;19.42;11.10;;;9.00;81.50;;;;;;6204477;28;20042;-79
2021/12/14 15:19:53;;;;;;;23.33;10.23;;;9.00;81.50;;;;;;6204247;28;20054;-79
2021/12/14 15:23:01;;;;;;;25.38;11.85;;;9.10;81.90;;;;;;6205417;28;20049;-79
2021/12/14 15:26:13;;;;;;;23.20;11.10;;;9.00;81.50;;;;;;6203758;28;20127;-79
2021/12/14 15:29:28;;;;;;;20.73;10.82;;;9.10;81.70;;;;;;6204488;28;20042;-79
2021/12/14 15:32:31;;;;;;;30.75;15.70;;;8.90;81.80;;;;;;6205105;28;20115;-79
2021/12/14 15:35:42;;;;;;;30.95;11.88;;;9.00;81.90;;;;;;6203701;28;20058;-79
2021/12/14 15:38:47;;;;;;;27.40;11.13;;;9.00;81.90;;;;;;6205202;28;20086;-79
2021/12/14 15:41:49;;;;;;;19.45;10.27;;;9.10;82.00;;;;;;6204245;28;20074;-78
2021/12/14 15:44:52;;;;;;;22.10;11.85;;;9.00;81.90;;;;;;6204190;28;20042;-79
2021/12/14 15:48:05;;;;;;;19.55;11.38;;;9.10;81.80;;;;;;6203895;28;20046;-80
2021/12/14 15:51:19;;;;;;;21.60;11.57;;;9.00;81.70;;;;;;6204874;28;20149;-79
2021/12/14 15:54:36;;;;;;;22.27;10.90;;;8.90;81.90;;;;;;6204265;28;20514;-79
2021/12/14 15:57:38;;;;;;;22.15;11.68;;;8.90;82.00;;;;;;6191417;28;20057;-79
2021/12/14 16:00:41;;;;;;;25.88;12.05;;;9.00;82.00;;;;;;6202969;28;20057;-80
2021/12/14 16:03:43;;;;;;;20.08;11.07;;;8.90;82.10;;;;;;6202976;28;20049;-78
2021/12/14 16:06:49;;;;;;;22.20;11.68;;;8.90;82.10;;;;;;6202619;28;20046;-80
2021/12/14 16:09:57;;;;;;;27.63;11.90;;;8.90;82.30;;;;;;6202605;28;20114;-79
2021/12/14 16:16:21;;;;;;;18.38;11.27;;;8.90;82.40;;;;;;6204586;28;20109;-82
2021/12/14 16:19:28;;;;;;;21.33;10.65;;;8.90;82.50;;;;;;6204902;28;20078;-81
2021/12/14 16:22:34;;;;;;;22.92;10.57;;;8.90;82.60;;;;;;6203454;28;20149;-80